KSANYPDN

Guest
Details From KSAN - San Diego Intl
To YPDN - Darwin Intl
Flight Number -
Tags Generated
Created
Modified
Stats Distance 6,908 nm / 12,793 km
Max Altitude 0 ft / 0 m
Waypoints 3
Social Downloads 1
Likes 0
Share VATSIM

Download

Looking for another format? Having issues loading an existing format? Contact us
Advertisement - Login to hide

Notes

Generated

Route

KSAN WODJA YPDN

ID Type Via Altitude Latitude Longitude Leg Dist Tot Dist Heading (true) Name
O KSAN APT - 0 ft / 0 m 32.73712˚ -117.20435˚ - 0 nm - -
WODJA FIX - 0 ft / 0 m -12.29332˚ 131.04166˚ 6895 nm 6895 nm 271° / 239° -
O YPDN APT - 0 ft / 0 m -12.40889˚ 130.87067˚ 12 nm 6907 nm 235° / 235° -

Altitude Profile

Advertisement - Login to hide

Weather


0- 5 10 15 20 25 30 35+ Temperature / ° C

Clouds and Precipitation
Forecast for 2018-05-20 18:00 UTC. Updated 5 hours ago

Ground ~20,000 ft ~40,000 ft Winds

KSAN

Details ICAO KSAN (SAN)
Name San Diego Intl
Region United States
Timezone America/Los_Angeles (UTC-7.0)
Stats Elevation 17 ft / 5 m (AMSL)
Location 32.733556° -117.189658°
Runways 1
Magnetic Variation 11.488° E

METAR

KSAN 202151Z 27009KT 10SM BKN013 OVC025 18/13 A2995 RMK AO2 SLP143 T01780128

Decode

TAF

TAF AMD KSAN 202050Z 2021/2124 23009KT P6SM BKN027 FM210200 21006KT P6SM OVC018 FM211400 19008KT P6SM OVC022 FM212000 23010KT P6SM BKN030

Decode

Departure Runways

ID Width Length Bearing (true) Bearing (mag) Surface Threshold Offset Overrun Length
09 200 ft / 61 m 9,387 ft / 2,861 m 106.07° 94.58° Asphalt 699 ft / 213 m 269 ft / 82 m
27 200 ft / 61 m 9,387 ft / 2,861 m 286.08° 274.59° Asphalt 1,811 ft / 552 m 0 ft / 0 m

YPDN

Details ICAO YPDN (DRW)
Name Darwin Intl
Region Australia
Timezone Australia/Darwin (UTC+9.5)
Stats Elevation 102 ft / 31 m (AMSL)
Location -12.415064° 130.875278°
Runways 2
Magnetic Variation 2.632° E

METAR

YPDN 202200Z 14007KT CAVOK 23/13 Q1012

Decode

TAF

TAF YPDN 201704Z 2018/2124 13008KT CAVOK FM210000 11014KT CAVOK FM210600 10008KT CAVOK FM211100 16005KT CAVOK

Decode

Destination Runways

ID Width Length Bearing (true) Bearing (mag) Surface Threshold Offset Overrun Length
11 197 ft / 60 m 10,997 ft / 3,352 m 109.02° 106.39° Asphalt 0 ft / 0 m 0 ft / 0 m
18 98 ft / 30 m 5,029 ft / 1,533 m 179.85° 177.22° Asphalt 0 ft / 0 m 0 ft / 0 m
29 197 ft / 60 m 10,997 ft / 3,352 m 289.02° 286.39° Asphalt 0 ft / 0 m 0 ft / 0 m
36 98 ft / 30 m 5,029 ft / 1,533 m 359.85° 357.22° Asphalt 0 ft / 0 m 0 ft / 0 m

Approach Navaids

Runway Type Ident Frequency Range Bearing (true) Bearing (mag) Slope Elevation
29 Localiser IDN 109.70 MHz 18 nm / 33 km 289.00° 286.37° - 103 ft / 31 m (AMSL)
29 Glidescope IDN 109.70 MHz 10 nm / 19 km 289.02° 286.39° 3.00° 103 ft / 31 m (AMSL)